29AR weather

White County Medical Center Heliport
Searcy, Arkansas, United States

Public forecast

Using degrees Fahrenheit for public forecast. Weather courtesy of forecast.io.

METAR (pilot weather report)

Closest report is Searcy Municipal Airport, 3.2 nm (5.9 km) SW. Retrieved 2019/07/18 21:56 UTC (48 minutes ago):

KSRC 182156Z AUTO 20010KT 10SM BKN037 33/26 A2995 RMK AO2 SLP142 T03330256

TAF (pilot weather forecast)

Forecast is more than 6 hours old.

Closest forecast is Little Rock Air Force Base, 30.0 nm (55.6 km) SW. Retrieved 2019/07/18 15:00 UTC (8 hours ago):

TAF TAF KLRF 181500Z 1815/1921 23010G15KT 9999 SCT040 QNH2992INS BECMG 1823/1824 18006KT 9999 FEW040 QNH2988INS BECMG 1915/1916 20010G15KT 9999 SCT040 QNH2993INS TX36/1821Z TN24/1912Z